createdAt,value
2022-09-23T00:01:54.091Z,5.70
2022-09-23T00:07:55.720Z,5.97
2022-09-23T00:13:58.596Z,5.25
2022-09-23T00:20:00.403Z,5.25
2022-09-23T00:26:02.935Z,5.40
2022-09-23T00:32:04.556Z,5.18
2022-09-23T00:38:05.895Z,8.43
2022-09-23T00:44:27.528Z,6.30
2022-09-23T00:50:37.440Z,6.38
2022-09-23T00:56:39.292Z,6.03
2022-09-23T01:02:40.703Z,5.30
2022-09-23T01:08:44.289Z,5.70
2022-09-23T01:14:48.272Z,5.43
2022-09-23T01:21:07.064Z,5.32
2022-09-23T01:27:27.758Z,5.03
2022-09-23T01:33:39.459Z,5.40
2022-09-23T01:39:47.952Z,5.47
2022-09-23T01:45:54.329Z,5.15
2022-09-23T01:52:06.756Z,5.45
2022-09-23T01:58:16.968Z,5.47
2022-09-23T02:04:22.361Z,5.93
2022-09-23T02:10:35.953Z,5.40
2022-09-23T02:16:42.560Z,5.35
2022-09-23T02:23:03.077Z,5.60
2022-09-23T02:29:04.468Z,5.53
2022-09-23T02:35:15.561Z,5.38
2022-09-23T02:41:36.684Z,5.00
2022-09-23T02:47:39.599Z,5.53
2022-09-23T02:53:40.971Z,5.53
2022-09-23T02:59:42.366Z,5.70
2022-09-23T03:05:49.565Z,5.70
2022-09-23T03:11:56.814Z,5.07
2022-09-23T03:18:07.592Z,5.60
2022-09-23T03:24:10.640Z,5.82
2022-09-23T03:30:12.942Z,5.27
2022-09-23T03:36:34.442Z,5.47
2022-09-23T03:42:37.242Z,5.90
2022-09-23T03:48:38.611Z,5.72
2022-09-23T03:54:40.100Z,5.05
2022-09-23T04:00:42.293Z,5.40
2022-09-23T04:06:43.757Z,5.43
2022-09-23T04:12:45.178Z,4.70
2022-09-23T04:18:46.721Z,6.32
2022-09-23T04:24:48.580Z,5.97
2022-09-23T04:30:50.004Z,5.57
2022-09-23T04:36:51.686Z,6.00
2022-09-23T04:42:53.055Z,5.27
2022-09-23T04:48:56.482Z,5.43
2022-09-23T04:54:57.859Z,5.35
2022-09-23T05:01:07.441Z,5.90
2022-09-23T05:07:10.484Z,6.03
2022-09-23T05:13:11.841Z,5.37
2022-09-23T05:19:13.440Z,5.82
2022-09-23T05:25:14.889Z,6.20
2022-09-23T05:31:20.845Z,5.70
2022-09-23T05:37:23.190Z,5.90
2022-09-23T05:43:24.880Z,6.10
2022-09-23T05:49:42.571Z,6.15
2022-09-23T05:55:47.691Z,6.40
2022-09-23T06:01:52.003Z,5.90
2022-09-23T06:07:54.631Z,5.50
2022-09-23T06:14:01.336Z,5.97
2022-09-23T06:20:02.844Z,5.03
2022-09-23T06:26:05.456Z,4.13
2022-09-23T06:32:06.888Z,4.03
2022-09-23T06:38:08.288Z,4.15
2022-09-23T06:44:09.746Z,4.07
2022-09-23T06:50:12.433Z,4.32
2022-09-23T06:56:14.083Z,4.00
2022-09-23T07:02:16.600Z,4.07
2022-09-23T07:08:18.840Z,3.95
2022-09-23T07:14:20.283Z,3.10
2022-09-23T07:20:21.826Z,3.80
2022-09-23T07:26:23.936Z,3.50
2022-09-23T07:32:25.419Z,3.33
2022-09-23T07:38:30.196Z,3.85
2022-09-23T07:44:32.183Z,3.70
2022-09-23T07:50:33.767Z,3.33
2022-09-23T07:56:35.984Z,3.22
2022-09-23T08:02:37.378Z,3.00
2022-09-23T08:08:40.569Z,3.25
2022-09-23T08:14:42.175Z,3.27
2022-09-23T08:20:47.804Z,3.13
2022-09-23T08:26:51.381Z,2.90
2022-09-23T08:32:52.741Z,2.77
2022-09-23T08:38:55.155Z,2.83
2022-09-23T08:44:58.882Z,3.00
2022-09-23T08:51:07.354Z,2.90
2022-09-23T08:57:14.883Z,2.38
2022-09-23T09:03:19.585Z,3.33
2022-09-23T09:09:30.479Z,3.10
2022-09-23T09:15:34.562Z,3.10
2022-09-23T09:21:39.218Z,3.15
2022-09-23T09:27:41.183Z,3.30
2022-09-23T09:34:00.210Z,3.10
2022-09-23T09:40:02.253Z,3.88
2022-09-23T09:46:15.879Z,2.70
2022-09-23T09:52:22.414Z,2.95
2022-09-23T09:58:24.777Z,2.70
2022-09-23T10:04:33.785Z,3.10
2022-09-23T10:10:35.318Z,3.42
2022-09-23T10:16:37.137Z,3.47
2022-09-23T10:22:40.368Z,3.15
2022-09-23T10:28:52.326Z,3.30
2022-09-23T10:34:57.045Z,2.70
2022-09-23T10:41:17.107Z,3.20
2022-09-23T10:47:35.994Z,3.10
2022-09-23T10:53:53.376Z,2.85
2022-09-23T10:59:55.095Z,2.70
2022-09-23T11:06:12.849Z,2.70
2022-09-23T11:12:32.282Z,2.83
2022-09-23T11:18:44.656Z,2.90
2022-09-23T11:25:00.098Z,2.53
2022-09-23T11:31:10.097Z,2.38
2022-09-23T11:37:17.099Z,2.00
2022-09-23T11:43:21.619Z,1.83
2022-09-23T11:49:40.023Z,1.80
2022-09-23T11:55:56.832Z,2.00
2022-09-23T12:02:14.271Z,1.92
2022-09-23T12:08:33.566Z,2.17
2022-09-23T12:14:58.457Z,1.70
2022-09-23T12:21:45.704Z,2.30
2022-09-23T12:27:44.681Z,2.10
2022-09-23T12:33:53.552Z,1.98
2022-09-23T12:39:58.242Z,2.70
2022-09-23T12:46:19.911Z,2.30
2022-09-23T12:52:32.452Z,2.50
2022-09-23T12:58:37.433Z,2.20
2022-09-23T13:05:00.505Z,2.13
2022-09-23T13:11:02.746Z,1.70
2022-09-23T13:17:04.599Z,1.90
2022-09-23T13:23:22.644Z,1.90
2022-09-23T13:29:26.464Z,2.00
2022-09-23T13:35:34.011Z,2.03
2022-09-23T13:41:35.906Z,2.00
2022-09-23T13:47:41.306Z,2.00
2022-09-23T13:53:42.742Z,1.50
2022-09-23T13:59:44.119Z,2.00
2022-09-23T14:05:46.099Z,1.52
2022-09-23T14:11:49.159Z,1.70
2022-09-23T14:17:57.357Z,1.80
2022-09-23T14:24:04.964Z,1.83
2022-09-23T14:30:06.690Z,1.80
2022-09-23T14:36:30.074Z,1.70
2022-09-23T14:42:37.381Z,1.70
2022-09-23T14:48:38.954Z,1.83
2022-09-23T14:54:44.810Z,1.80
2022-09-23T15:00:54.203Z,1.88
2022-09-23T15:06:58.043Z,1.80
2022-09-23T15:13:05.586Z,1.80
2022-09-23T15:19:14.796Z,1.90
2022-09-23T15:25:18.482Z,1.80
2022-09-23T15:31:20.906Z,1.90
2022-09-23T15:37:22.351Z,2.10
2022-09-23T15:43:25.008Z,2.10
2022-09-23T15:49:34.136Z,1.52
2022-09-23T15:55:35.555Z,1.70
2022-09-23T16:01:37.126Z,1.70
2022-09-23T16:07:38.504Z,2.35
2022-09-23T16:13:39.857Z,2.90
2022-09-23T16:19:41.426Z,1.98
2022-09-23T16:25:42.808Z,2.92
2022-09-23T16:31:44.232Z,2.30
2022-09-23T16:37:47.012Z,2.85
2022-09-23T16:43:49.038Z,3.83
2022-09-23T16:49:50.474Z,3.72
2022-09-23T16:55:53.608Z,2.85
2022-09-23T17:02:13.809Z,2.73
2022-09-23T17:08:15.874Z,2.53
2022-09-23T17:14:17.621Z,3.20
2022-09-23T17:20:20.045Z,2.97
2022-09-23T17:26:23.302Z,4.10
2022-09-23T17:32:25.311Z,5.20
2022-09-23T17:38:29.327Z,4.43
2022-09-23T17:44:31.071Z,4.47
2022-09-23T17:50:32.648Z,4.47
2022-09-23T17:56:34.173Z,5.15
2022-09-23T18:02:35.744Z,5.27
2022-09-23T18:08:37.207Z,5.05
2022-09-23T18:14:39.122Z,5.57
2022-09-23T18:20:40.560Z,6.15
2022-09-23T18:26:42.841Z,5.80
2022-09-23T18:32:44.943Z,5.67
2022-09-23T18:38:46.847Z,6.25
2022-09-23T18:44:49.837Z,6.33
2022-09-23T18:50:51.844Z,6.28
2022-09-23T18:56:53.318Z,7.15
2022-09-23T19:02:54.774Z,7.87
2022-09-23T19:08:56.247Z,8.10
2022-09-23T19:14:58.843Z,7.53
2022-09-23T19:21:03.657Z,7.10
2022-09-23T19:27:08.281Z,7.15
2022-09-23T19:33:09.924Z,7.50
2022-09-23T19:39:31.841Z,7.90
2022-09-23T19:45:34.217Z,8.47
2022-09-23T19:51:35.636Z,7.78
2022-09-23T19:57:37.066Z,7.65
2022-09-23T20:03:38.835Z,7.20
2022-09-23T20:09:40.226Z,7.13
2022-09-23T20:15:43.921Z,7.53
2022-09-23T20:21:45.340Z,6.88
2022-09-23T20:27:49.375Z,6.72
2022-09-23T20:33:51.507Z,6.70
2022-09-23T20:39:53.038Z,7.03
2022-09-23T20:45:55.130Z,7.57
2022-09-23T20:51:56.495Z,6.68
2022-09-23T20:57:57.879Z,6.60
2022-09-23T21:03:59.306Z,7.80
2022-09-23T21:10:04.760Z,8.40
2022-09-23T21:16:08.520Z,8.73
2022-09-23T21:22:10.408Z,7.80
2022-09-23T21:28:12.317Z,7.45
2022-09-23T21:34:14.485Z,7.13
2022-09-23T21:40:34.877Z,7.28
2022-09-23T21:46:36.626Z,7.17
2022-09-23T21:52:39.050Z,7.00
2022-09-23T21:58:40.738Z,7.60
2022-09-23T22:04:42.182Z,7.40
2022-09-23T22:10:43.690Z,7.13
2022-09-23T22:16:45.247Z,7.03
2022-09-23T22:22:46.659Z,6.60
2022-09-23T22:29:06.852Z,6.93
2022-09-23T22:35:09.034Z,6.57
2022-09-23T22:41:13.911Z,6.60
2022-09-23T22:47:15.362Z,5.50
2022-09-23T22:53:17.095Z,6.05
2022-09-23T22:59:18.562Z,6.40
2022-09-23T23:05:20.054Z,6.20
2022-09-23T23:11:21.586Z,6.50
2022-09-23T23:17:22.967Z,6.27
2022-09-23T23:23:24.347Z,6.20
2022-09-23T23:29:25.830Z,6.18
2022-09-23T23:35:27.319Z,6.37
2022-09-23T23:41:28.745Z,6.45
2022-09-23T23:47:30.120Z,6.53
2022-09-23T23:53:32.824Z,6.40
2022-09-23T23:59:34.472Z,6.32
